createdAt,value
2018-07-19T00:00:37.169Z,0.00
2018-07-19T00:01:43.523Z,0.00
2018-07-19T00:02:46.398Z,0.00
2018-07-19T00:03:58.287Z,0.00
2018-07-19T00:05:06.994Z,0.00
2018-07-19T00:06:07.719Z,0.00
2018-07-19T00:07:15.814Z,0.00
2018-07-19T00:10:24.540Z,0.00
2018-07-19T00:11:44.617Z,0.00
2018-07-19T00:12:41.282Z,0.00
2018-07-19T00:13:50.467Z,0.00
2018-07-19T00:14:54.680Z,0.00
2018-07-19T00:17:00.624Z,0.00
2018-07-19T00:18:10.362Z,0.00
2018-07-19T00:19:13.949Z,0.00
2018-07-19T00:20:14.879Z,0.00
2018-07-19T00:21:29.024Z,0.00
2018-07-19T00:22:18.373Z,0.00
2018-07-19T00:23:34.825Z,0.00
2018-07-19T00:24:45.113Z,0.00
2018-07-19T00:25:47.885Z,0.00
2018-07-19T00:27:58.447Z,0.00
2018-07-19T00:29:01.934Z,0.00
2018-07-19T00:30:22.015Z,0.00
2018-07-19T00:31:13.109Z,0.00
2018-07-19T00:32:21.003Z,0.00
2018-07-19T00:33:23.772Z,0.00
2018-07-19T00:34:23.780Z,0.00
2018-07-19T00:35:36.177Z,0.00
2018-07-19T00:36:45.306Z,0.00
2018-07-19T00:37:49.605Z,0.00
2018-07-19T00:38:59.234Z,0.00
2018-07-19T00:40:00.167Z,0.00
2018-07-19T00:40:58.228Z,0.00
2018-07-19T00:43:15.138Z,0.00
2018-07-19T00:46:32.057Z,0.00
2018-07-19T00:47:37.077Z,0.00
2018-07-19T00:48:44.969Z,0.00
2018-07-19T00:49:43.282Z,0.00
2018-07-19T00:52:02.398Z,0.00
2018-07-19T00:53:02.285Z,0.00
2018-07-19T00:54:05.285Z,0.00
2018-07-19T00:55:13.785Z,0.00
2018-07-19T00:56:11.026Z,0.00
2018-07-19T00:57:30.388Z,0.00
2018-07-19T00:58:28.857Z,0.00
2018-07-19T00:59:37.285Z,0.00
2018-07-19T01:00:36.284Z,0.00
2018-07-19T01:01:57.755Z,0.00
2018-07-19T01:03:01.810Z,0.00
2018-07-19T01:04:02.889Z,0.00
2018-07-19T01:05:07.311Z,0.00
2018-07-19T01:06:14.313Z,0.00
2018-07-19T01:07:20.120Z,0.00
2018-07-19T01:08:19.288Z,0.00
2018-07-19T01:10:37.030Z,0.00
2018-07-19T01:11:41.139Z,0.00
2018-07-19T01:12:59.878Z,0.00
2018-07-19T01:13:56.302Z,0.00
2018-07-19T01:15:07.062Z,0.00
2018-07-19T01:16:04.710Z,0.00
2018-07-19T01:18:35.035Z,0.00
2018-07-19T01:20:25.629Z,0.00
2018-07-19T01:22:37.417Z,0.00
2018-07-19T01:23:43.262Z,0.00
2018-07-19T01:25:06.207Z,0.00
2018-07-19T01:25:51.740Z,0.00
2018-07-19T01:27:02.739Z,0.00
2018-07-19T01:28:10.015Z,0.00
2018-07-19T01:29:22.517Z,0.00
2018-07-19T01:30:16.585Z,0.00
2018-07-19T01:31:22.530Z,0.00
2018-07-19T01:32:35.541Z,0.00
2018-07-19T01:33:30.631Z,0.00
2018-07-19T01:34:35.556Z,0.00
2018-07-19T01:35:32.283Z,0.00
2018-07-19T01:37:47.349Z,0.00
2018-07-19T01:39:09.299Z,0.00
2018-07-19T01:39:54.940Z,0.00
2018-07-19T01:42:24.549Z,0.00
2018-07-19T01:44:22.822Z,0.00
2018-07-19T01:45:32.455Z,0.00
2018-07-19T01:46:36.559Z,0.00
2018-07-19T01:47:46.303Z,0.00
2018-07-19T01:48:59.712Z,0.00
2018-07-19T01:51:02.593Z,0.00
2018-07-19T01:52:04.342Z,0.00
2018-07-19T01:53:15.612Z,0.00
2018-07-19T01:54:24.016Z,0.00
2018-07-19T01:57:50.047Z,0.00
2018-07-19T01:58:43.703Z,0.00
2018-07-19T01:59:48.934Z,0.00
2018-07-19T02:00:45.765Z,0.00
2018-07-19T02:02:08.841Z,0.00
2018-07-19T02:03:02.367Z,0.00
2018-07-19T02:04:14.970Z,0.00
2018-07-19T02:05:18.561Z,0.00
2018-07-19T02:06:18.364Z,0.00
2018-07-19T02:07:24.305Z,0.00
2018-07-19T02:08:30.050Z,0.00
2018-07-19T02:10:45.308Z,0.00
2018-07-19T02:11:34.679Z,0.00
2018-07-19T02:12:46.666Z,0.00
2018-07-19T02:13:49.439Z,0.00
2018-07-19T02:15:02.346Z,0.00
2018-07-19T02:16:08.804Z,0.00
2018-07-19T02:17:15.672Z,0.00
2018-07-19T02:19:25.209Z,0.00
2018-07-19T02:20:30.233Z,0.00
2018-07-19T02:21:35.054Z,0.00
2018-07-19T02:22:27.482Z,0.00
2018-07-19T02:23:35.273Z,0.00
2018-07-19T02:25:54.536Z,0.00
2018-07-19T02:29:06.312Z,0.00
2018-07-19T02:30:18.319Z,0.00
2018-07-19T02:31:26.417Z,0.00
2018-07-19T02:32:18.128Z,0.00
2018-07-19T02:33:29.298Z,0.00
2018-07-19T02:34:28.187Z,0.00
2018-07-19T02:35:43.239Z,0.00
2018-07-19T02:36:52.256Z,0.00
2018-07-19T02:37:42.844Z,0.00
2018-07-19T02:38:56.315Z,0.00
2018-07-19T02:40:06.509Z,0.00
2018-07-19T02:41:07.335Z,0.00
2018-07-19T02:42:17.581Z,0.00
2018-07-19T02:43:20.457Z,0.00
2018-07-19T02:44:27.531Z,0.00
2018-07-19T02:45:28.861Z,0.00
2018-07-19T02:46:28.464Z,0.00
2018-07-19T02:47:44.138Z,0.00
2018-07-19T02:50:02.863Z,0.00
2018-07-19T02:50:58.392Z,0.00
2018-07-19T02:53:07.519Z,0.00
2018-07-19T02:54:20.122Z,0.00
2018-07-19T02:55:15.008Z,0.00
2018-07-19T02:56:27.712Z,0.00
2018-07-19T02:57:32.738Z,0.00
2018-07-19T02:58:42.368Z,0.00
2018-07-19T02:59:31.835Z,0.00
2018-07-19T03:00:48.016Z,0.00
2018-07-19T03:01:58.878Z,0.00
2018-07-19T03:03:09.845Z,0.00
2018-07-19T03:04:00.531Z,0.00
2018-07-19T03:05:09.033Z,0.00
2018-07-19T03:06:26.212Z,0.00
2018-07-19T03:07:19.595Z,0.00
2018-07-19T03:08:37.326Z,0.00
2018-07-19T03:09:27.597Z,0.00
2018-07-19T03:10:31.187Z,0.00
2018-07-19T03:11:40.512Z,0.00
2018-07-19T03:14:02.543Z,0.00
2018-07-19T03:18:10.453Z,0.00
2018-07-19T03:19:29.409Z,0.00
2018-07-19T03:20:38.322Z,0.00
2018-07-19T03:21:42.637Z,0.00
2018-07-19T03:22:35.670Z,0.00
2018-07-19T03:23:43.563Z,0.00
2018-07-19T03:24:44.186Z,0.00
2018-07-19T03:25:51.564Z,0.00
2018-07-19T03:26:57.510Z,0.00
2018-07-19T03:28:08.576Z,0.00
2018-07-19T03:29:03.978Z,0.00
2018-07-19T03:30:09.616Z,0.00
2018-07-19T03:32:27.249Z,0.00
2018-07-19T03:33:36.054Z,0.00
2018-07-19T03:34:38.930Z,0.00
2018-07-19T03:36:52.151Z,0.00
2018-07-19T03:37:54.409Z,0.00
2018-07-19T03:38:59.211Z,0.00
2018-07-19T03:40:08.262Z,0.00
2018-07-19T03:41:02.621Z,0.00
2018-07-19T03:42:13.483Z,0.00
2018-07-19T03:43:22.501Z,0.00
2018-07-19T03:44:34.696Z,0.00
2018-07-19T03:45:28.763Z,0.00
2018-07-19T03:46:41.672Z,0.00
2018-07-19T03:47:39.531Z,0.00
2018-07-19T03:48:53.255Z,0.00
2018-07-19T03:49:55.002Z,0.00
2018-07-19T03:50:54.908Z,0.00
2018-07-19T03:52:10.346Z,0.00
2018-07-19T03:53:07.208Z,0.00
2018-07-19T03:54:24.725Z,0.00
2018-07-19T03:55:25.758Z,0.00
2018-07-19T03:56:25.457Z,0.00
2018-07-19T03:57:31.301Z,0.00
2018-07-19T03:58:49.534Z,0.00
2018-07-19T03:59:43.341Z,0.00
2018-07-19T04:00:47.807Z,0.00
2018-07-19T04:03:00.400Z,0.00
2018-07-19T04:04:06.184Z,0.00
2018-07-19T04:05:11.693Z,0.00
2018-07-19T04:06:20.508Z,0.00
2018-07-19T04:07:26.402Z,0.00
2018-07-19T04:08:36.803Z,0.00
2018-07-19T04:09:32.815Z,0.00
2018-07-19T04:10:46.032Z,0.00
2018-07-19T04:11:48.811Z,0.00
2018-07-19T04:12:53.315Z,0.00
2018-07-19T04:13:50.557Z,0.00
2018-07-19T04:14:57.220Z,0.00
2018-07-19T04:16:07.774Z,0.00
2018-07-19T04:17:13.937Z,0.00
2018-07-19T04:19:29.916Z,0.00
2018-07-19T04:21:36.788Z,5.63
2018-07-19T04:22:40.583Z,5.63
2018-07-19T04:23:46.734Z,5.63
2018-07-19T04:24:50.123Z,5.63
2018-07-19T04:27:14.350Z,5.63
2018-07-19T04:28:13.488Z,5.63
2018-07-19T04:29:12.779Z,5.63
2018-07-19T04:30:30.353Z,5.63
2018-07-19T04:32:29.386Z,5.63
2018-07-19T04:33:43.833Z,5.63
2018-07-19T04:34:34.216Z,5.63
2018-07-19T04:35:40.875Z,5.63
2018-07-19T04:36:50.816Z,5.63
2018-07-19T04:38:04.338Z,5.63
2018-07-19T04:39:12.745Z,5.63
2018-07-19T04:40:11.828Z,5.63
2018-07-19T04:41:10.606Z,5.63
2018-07-19T04:43:25.880Z,5.63
2018-07-19T04:44:31.357Z,5.63
2018-07-19T04:45:47.415Z,5.63
2018-07-19T04:46:49.358Z,5.63
2018-07-19T04:47:47.513Z,5.63
2018-07-19T04:48:47.927Z,5.63
2018-07-19T04:49:58.482Z,5.63
2018-07-19T04:51:02.276Z,5.63
2018-07-19T04:52:04.946Z,5.63
2018-07-19T04:53:17.449Z,5.63
2018-07-19T04:54:30.883Z,5.63
2018-07-19T04:55:28.927Z,5.63
2018-07-19T04:56:29.753Z,5.63
2018-07-19T04:58:49.019Z,5.63
2018-07-19T04:59:52.917Z,5.63
2018-07-19T05:00:53.746Z,11.25
2018-07-19T05:03:03.074Z,11.25
2018-07-19T05:04:05.233Z,11.25
2018-07-19T05:05:23.568Z,11.25
2018-07-19T05:06:18.660Z,11.25
2018-07-19T05:07:20.919Z,11.25
2018-07-19T05:08:35.673Z,11.25
2018-07-19T05:09:43.666Z,11.25
2018-07-19T05:10:40.908Z,11.25
2018-07-19T05:11:49.620Z,11.25
2018-07-19T05:13:04.678Z,11.25
2018-07-19T05:15:25.363Z,11.25
2018-07-19T05:16:12.591Z,11.25
2018-07-19T05:17:16.277Z,11.25
2018-07-19T05:18:36.252Z,11.25
2018-07-19T05:19:25.508Z,11.25
2018-07-19T05:20:39.030Z,11.25
2018-07-19T05:21:55.215Z,11.25
2018-07-19T05:23:02.493Z,11.25
2018-07-19T05:24:03.012Z,11.25
2018-07-19T05:25:12.132Z,11.25
2018-07-19T05:26:08.454Z,11.25
2018-07-19T05:27:07.333Z,11.25
2018-07-19T05:28:20.463Z,11.25
2018-07-19T05:29:43.289Z,11.25
2018-07-19T05:31:45.561Z,11.25
2018-07-19T05:32:34.810Z,11.25
2018-07-19T05:33:59.371Z,11.25
2018-07-19T05:34:51.100Z,11.25
2018-07-19T05:36:28.941Z,11.25
2018-07-19T05:37:04.330Z,11.25
2018-07-19T05:38:08.945Z,11.25
2018-07-19T05:39:13.374Z,11.25
2018-07-19T05:40:15.259Z,11.25
2018-07-19T05:41:09.583Z,11.25
2018-07-19T05:43:13.689Z,11.25
2018-07-19T05:44:10.523Z,11.25
2018-07-19T05:44:41.242Z,11.25
2018-07-19T05:45:47.187Z,11.25
2018-07-19T05:46:54.465Z,11.25
2018-07-19T05:48:00.374Z,11.25
2018-07-19T05:49:25.404Z,11.25
2018-07-19T05:50:18.140Z,11.25
2018-07-19T05:51:22.549Z,11.25
2018-07-19T05:52:21.127Z,11.25
2018-07-19T05:56:50.436Z,16.88
2018-07-19T05:57:58.841Z,16.88
2018-07-19T05:58:55.672Z,16.88
2018-07-19T06:00:06.738Z,16.88
2018-07-19T06:01:15.859Z,16.88
2018-07-19T06:02:24.380Z,16.88
2018-07-19T06:03:27.240Z,16.88
2018-07-19T06:05:31.963Z,16.88
2018-07-19T06:08:49.904Z,16.88
2018-07-19T06:10:03.736Z,16.88
2018-07-19T06:11:02.922Z,16.88
2018-07-19T06:12:03.031Z,16.88
2018-07-19T06:13:23.007Z,16.88
2018-07-19T06:14:24.448Z,16.88
2018-07-19T06:17:33.888Z,16.88
2018-07-19T06:18:40.441Z,16.88
2018-07-19T06:19:47.113Z,16.88
2018-07-19T06:21:55.385Z,16.88
2018-07-19T06:23:01.676Z,16.88
2018-07-19T06:24:08.130Z,16.88
2018-07-19T06:25:16.386Z,16.88
2018-07-19T06:26:25.045Z,16.88
2018-07-19T06:27:22.897Z,16.88
2018-07-19T06:28:30.178Z,22.50
2018-07-19T06:29:27.416Z,22.50
2018-07-19T06:30:39.198Z,22.50
2018-07-19T06:31:45.560Z,22.50
2018-07-19T06:32:54.573Z,22.50
2018-07-19T06:33:59.903Z,22.50
2018-07-19T06:35:07.384Z,16.88
2018-07-19T06:36:03.603Z,16.88
2018-07-19T06:39:16.322Z,22.50
2018-07-19T06:40:25.135Z,22.50
2018-07-19T06:41:34.357Z,22.50
2018-07-19T06:42:44.094Z,22.50
2018-07-19T06:43:53.314Z,22.50
2018-07-19T06:44:54.551Z,22.50
2018-07-19T06:45:59.267Z,22.50
2018-07-19T06:47:01.630Z,22.50
2018-07-19T06:48:09.302Z,22.50
2018-07-19T06:49:07.696Z,22.50
2018-07-19T06:50:19.674Z,22.50
2018-07-19T06:51:18.450Z,22.50
2018-07-19T06:52:31.463Z,28.13
2018-07-19T06:53:28.909Z,22.50
2018-07-19T06:54:42.026Z,22.50
2018-07-19T06:55:42.438Z,28.13
2018-07-19T06:57:05.692Z,28.13
2018-07-19T06:57:57.197Z,28.13
2018-07-19T06:59:00.073Z,28.13
2018-07-19T07:00:09.399Z,28.13
2018-07-19T07:01:17.187Z,28.13
2018-07-19T07:02:24.055Z,28.13
2018-07-19T07:03:30.578Z,28.13
2018-07-19T07:04:31.031Z,28.13
2018-07-19T07:05:33.395Z,28.13
2018-07-19T07:06:48.044Z,28.13
2018-07-19T07:07:58.496Z,28.13
2018-07-19T07:08:59.469Z,28.13
2018-07-19T07:09:59.952Z,28.13
2018-07-19T07:11:13.673Z,28.13
2018-07-19T07:12:13.575Z,28.13
2018-07-19T07:13:20.042Z,28.13
2018-07-19T07:15:42.885Z,28.13
2018-07-19T07:16:41.158Z,28.13
2018-07-19T07:17:43.827Z,28.13
2018-07-19T07:18:54.780Z,28.13
2018-07-19T07:19:54.893Z,28.13
2018-07-19T07:21:00.834Z,28.13
2018-07-19T07:22:04.733Z,33.75
2018-07-19T07:23:26.143Z,28.13
2018-07-19T07:24:23.492Z,28.13
2018-07-19T07:25:22.879Z,28.13
2018-07-19T07:26:28.621Z,28.13
2018-07-19T07:27:32.217Z,28.13
2018-07-19T07:28:39.898Z,28.13
2018-07-19T07:31:01.317Z,28.13
2018-07-19T07:31:57.429Z,28.13
2018-07-19T07:33:03.170Z,28.13
2018-07-19T07:35:05.438Z,28.13
2018-07-19T07:36:23.502Z,28.13
2018-07-19T07:37:31.666Z,28.13
2018-07-19T07:39:31.883Z,33.75
2018-07-19T07:41:33.740Z,28.13
2018-07-19T07:43:58.130Z,28.13
2018-07-19T07:44:59.872Z,33.75
2018-07-19T07:45:54.666Z,33.75
2018-07-19T07:48:07.678Z,28.13
2018-07-19T07:49:33.999Z,28.13
2018-07-19T07:50:36.465Z,33.75
2018-07-19T07:51:39.951Z,39.38
2018-07-19T07:52:53.681Z,39.38
2018-07-19T07:54:01.370Z,33.75
2018-07-19T07:54:46.740Z,33.75
2018-07-19T07:57:03.436Z,39.38
2018-07-19T07:58:29.041Z,39.38
2018-07-19T07:59:24.703Z,39.38
2018-07-19T08:00:37.863Z,33.75
2018-07-19T08:01:29.681Z,39.38
2018-07-19T08:03:28.872Z,39.38
2018-07-19T08:04:49.257Z,39.38
2018-07-19T08:06:34.319Z,39.38
2018-07-19T08:07:52.151Z,39.38
2018-07-19T08:08:38.023Z,39.38
2018-07-19T08:10:02.808Z,39.38
2018-07-19T08:10:46.023Z,39.38
2018-07-19T08:11:56.685Z,39.38
2018-07-19T08:13:04.021Z,39.38
2018-07-19T08:15:04.481Z,39.38
2018-07-19T08:16:12.579Z,39.38
2018-07-19T08:17:23.541Z,39.38
2018-07-19T08:18:29.793Z,39.38
2018-07-19T08:19:21.894Z,45.00
2018-07-19T08:21:23.977Z,39.38
2018-07-19T08:23:48.063Z,39.38
2018-07-19T08:25:46.838Z,39.38
2018-07-19T08:26:55.352Z,39.38
2018-07-19T08:27:55.153Z,39.38
2018-07-19T08:29:06.457Z,39.38
2018-07-19T08:30:11.442Z,39.38
2018-07-19T08:31:15.444Z,50.63
2018-07-19T08:32:13.505Z,39.38
2018-07-19T08:33:18.734Z,45.00
2018-07-19T08:34:26.521Z,39.38
2018-07-19T08:35:29.806Z,39.38
2018-07-19T08:36:40.779Z,39.38
2018-07-19T08:37:44.877Z,39.38
2018-07-19T08:40:01.681Z,45.00
2018-07-19T08:42:01.181Z,39.38
2018-07-19T08:43:13.271Z,33.75
2018-07-19T08:45:27.214Z,33.75
2018-07-19T08:46:33.571Z,39.38
2018-07-19T08:47:33.676Z,33.75
2018-07-19T08:48:37.786Z,33.75
2018-07-19T08:49:47.923Z,39.38
2018-07-19T08:50:57.045Z,39.38
2018-07-19T08:51:52.860Z,33.75
2018-07-19T08:53:01.269Z,33.75
2018-07-19T08:53:58.805Z,39.38
2018-07-19T08:55:08.951Z,33.75
2018-07-19T08:58:26.697Z,33.75
2018-07-19T08:59:41.441Z,33.75
2018-07-19T09:02:04.800Z,33.75
2018-07-19T09:02:50.575Z,39.38
2018-07-19T09:04:00.207Z,39.38
2018-07-19T09:06:23.669Z,39.38
2018-07-19T09:07:14.867Z,45.00
2018-07-19T09:09:33.109Z,50.63
2018-07-19T09:10:38.345Z,50.63
2018-07-19T09:13:04.464Z,39.38
2018-07-19T09:15:17.279Z,45.00
2018-07-19T09:16:09.707Z,45.00
2018-07-19T09:16:58.859Z,45.00
2018-07-19T09:18:34.298Z,45.00
2018-07-19T09:20:36.564Z,45.00
2018-07-19T09:21:31.246Z,45.00
2018-07-19T09:23:41.502Z,45.00
2018-07-19T09:24:40.277Z,45.00
2018-07-19T09:25:46.127Z,45.00
2018-07-19T09:27:03.535Z,45.00
2018-07-19T09:29:10.513Z,39.38
2018-07-19T09:30:16.457Z,45.00
2018-07-19T09:31:20.052Z,45.00
2018-07-19T09:33:17.195Z,45.00
2018-07-19T09:34:47.205Z,45.00
2018-07-19T09:35:39.227Z,45.00
2018-07-19T09:36:50.906Z,45.00
2018-07-19T09:37:58.185Z,45.00
2018-07-19T09:38:49.486Z,45.00
2018-07-19T09:40:07.522Z,45.00
2018-07-19T09:42:13.984Z,45.00
2018-07-19T09:43:19.210Z,45.00
2018-07-19T09:44:18.191Z,45.00
2018-07-19T09:46:29.059Z,50.63
2018-07-19T09:47:34.806Z,50.63
2018-07-19T09:49:50.788Z,50.63
2018-07-19T09:51:58.690Z,50.63
2018-07-19T09:53:04.020Z,56.25
2018-07-19T09:55:15.709Z,56.25
2018-07-19T09:57:35.279Z,56.25
2018-07-19T09:58:32.625Z,56.25
2018-07-19T09:59:37.340Z,56.25
2018-07-19T10:01:39.196Z,33.75
2018-07-19T10:03:01.636Z,39.38
2018-07-19T10:05:11.782Z,39.38
2018-07-19T10:06:08.921Z,56.25
2018-07-19T10:07:06.984Z,61.88
2018-07-19T10:08:17.639Z,61.88
2018-07-19T10:10:38.746Z,61.88
2018-07-19T10:11:39.061Z,56.25
2018-07-19T10:12:38.557Z,61.88
2018-07-19T10:13:53.724Z,61.88
2018-07-19T10:14:58.742Z,61.88
2018-07-19T10:16:01.412Z,56.25
2018-07-19T10:18:15.459Z,33.75
2018-07-19T10:19:10.544Z,33.75
2018-07-19T10:20:15.774Z,39.38
2018-07-19T10:21:22.949Z,39.38
2018-07-19T10:22:24.184Z,39.38
2018-07-19T10:23:39.379Z,50.63
2018-07-19T10:25:44.172Z,67.50
2018-07-19T10:26:54.527Z,39.38
2018-07-19T10:27:51.464Z,39.38
2018-07-19T10:28:59.348Z,39.38
2018-07-19T10:30:28.847Z,39.38
2018-07-19T10:31:21.891Z,67.50
2018-07-19T10:33:29.892Z,39.38
2018-07-19T10:34:28.807Z,33.75
2018-07-19T10:35:43.319Z,39.38
2018-07-19T10:36:40.049Z,50.63
2018-07-19T10:37:51.420Z,61.88
2018-07-19T10:40:56.870Z,73.13
2018-07-19T10:44:15.864Z,73.13
2018-07-19T10:46:30.184Z,67.50
2018-07-19T10:47:59.685Z,67.50
2018-07-19T10:48:43.510Z,73.13
2018-07-19T10:49:52.631Z,73.13
2018-07-19T10:50:55.407Z,73.13
2018-07-19T10:52:00.959Z,73.13
2018-07-19T10:53:03.505Z,73.13
2018-07-19T10:54:15.394Z,73.13
2018-07-19T10:55:33.737Z,73.13
2018-07-19T10:57:27.438Z,73.13
2018-07-19T10:58:36.482Z,73.13
2018-07-19T10:59:41.332Z,73.13
2018-07-19T11:01:56.094Z,73.13
2018-07-19T11:03:06.134Z,73.13
2018-07-19T11:04:14.844Z,67.50
2018-07-19T11:05:09.015Z,39.38
2018-07-19T11:07:32.622Z,33.75
2018-07-19T11:08:21.937Z,39.38
2018-07-19T11:09:28.737Z,39.38
2018-07-19T11:10:41.818Z,28.13
2018-07-19T11:11:49.505Z,33.75
2018-07-19T11:12:53.629Z,33.75
2018-07-19T11:13:58.529Z,33.75
2018-07-19T11:14:56.999Z,33.75
2018-07-19T11:16:07.860Z,33.75
2018-07-19T11:17:11.763Z,33.75
2018-07-19T11:19:18.325Z,39.38
2018-07-19T11:20:30.517Z,39.38
2018-07-19T11:21:29.910Z,45.00
2018-07-19T11:22:41.493Z,45.00
2018-07-19T11:23:44.465Z,45.00
2018-07-19T11:24:55.633Z,45.00
2018-07-19T11:25:57.901Z,45.00
2018-07-19T11:27:02.509Z,45.00
2018-07-19T11:28:01.084Z,45.00
2018-07-19T11:29:12.044Z,45.00
2018-07-19T11:30:24.142Z,45.00
2018-07-19T11:31:23.121Z,39.38
2018-07-19T11:32:26.606Z,39.38
2018-07-19T11:33:37.980Z,39.38
2018-07-19T11:34:45.564Z,45.00
2018-07-19T11:35:49.155Z,45.00
2018-07-19T11:37:52.957Z,45.00
2018-07-19T11:40:04.132Z,39.38
2018-07-19T11:41:21.633Z,45.00
2018-07-19T11:42:16.751Z,45.00
2018-07-19T11:44:29.966Z,45.00
2018-07-19T11:45:37.652Z,45.00
2018-07-19T11:46:59.674Z,45.00
2018-07-19T11:47:35.925Z,45.00
2018-07-19T11:48:46.990Z,39.38
2018-07-19T11:49:51.550Z,45.00
2018-07-19T11:51:03.293Z,73.13
2018-07-19T11:54:24.400Z,78.75
2018-07-19T11:55:19.696Z,78.75
2018-07-19T11:56:33.631Z,78.75
2018-07-19T11:57:35.795Z,78.75
2018-07-19T11:58:41.836Z,78.75
2018-07-19T11:59:47.066Z,78.75
2018-07-19T12:00:49.844Z,78.75
2018-07-19T12:04:16.482Z,78.75
2018-07-19T12:06:20.495Z,78.75
2018-07-19T12:08:32.491Z,78.75
2018-07-19T12:09:42.160Z,78.75
2018-07-19T12:10:47.960Z,78.75
2018-07-19T12:11:46.541Z,73.13
2018-07-19T12:12:45.618Z,73.13
2018-07-19T12:13:59.569Z,45.00
2018-07-19T12:15:01.913Z,45.00
2018-07-19T12:17:22.613Z,78.75
2018-07-19T12:18:16.372Z,78.75
2018-07-19T12:19:33.821Z,73.13
2018-07-19T12:20:33.798Z,45.00
2018-07-19T12:21:42.300Z,39.38
2018-07-19T12:22:46.203Z,45.00
2018-07-19T12:24:53.380Z,50.63
2018-07-19T12:26:08.133Z,45.00
2018-07-19T12:27:02.303Z,45.00
2018-07-19T12:28:02.623Z,45.00
2018-07-19T12:29:16.139Z,50.63
2018-07-19T12:30:18.505Z,50.63
2018-07-19T12:31:30.287Z,50.63
2018-07-19T12:32:29.473Z,50.63
2018-07-19T12:33:46.991Z,45.00
2018-07-19T12:34:33.694Z,45.00
2018-07-19T12:36:57.668Z,45.00
2018-07-19T12:38:09.035Z,45.00
2018-07-19T12:39:07.410Z,45.00
2018-07-19T12:40:15.613Z,56.25
2018-07-19T12:42:18.488Z,67.50
2018-07-19T12:43:28.837Z,45.00
2018-07-19T12:45:39.288Z,50.63
2018-07-19T12:47:49.440Z,56.25
2018-07-19T12:48:51.195Z,56.25
2018-07-19T12:49:58.874Z,61.88
2018-07-19T12:51:04.103Z,61.88
2018-07-19T12:52:11.528Z,61.88
2018-07-19T12:53:14.972Z,78.75
2018-07-19T12:54:12.726Z,78.75
2018-07-19T12:55:27.375Z,78.75
2018-07-19T12:56:34.187Z,78.75
2018-07-19T12:57:38.252Z,78.75
2018-07-19T12:58:39.480Z,73.13
2018-07-19T12:59:53.317Z,61.88
2018-07-19T13:01:03.668Z,78.75
2018-07-19T13:01:57.626Z,78.75
2018-07-19T13:03:12.693Z,78.75
2018-07-19T13:04:06.757Z,78.75
2018-07-19T13:05:16.901Z,78.75
2018-07-19T13:06:31.521Z,78.75
2018-07-19T13:07:26.693Z,78.75
2018-07-19T13:08:38.728Z,78.75
2018-07-19T13:09:38.632Z,78.75
2018-07-19T13:10:49.084Z,78.75
2018-07-19T13:11:48.886Z,73.13
2018-07-19T13:13:00.066Z,73.13
2018-07-19T13:13:59.754Z,73.13
2018-07-19T13:16:14.107Z,67.50
2018-07-19T13:17:15.959Z,67.50
2018-07-19T13:18:30.203Z,67.50
2018-07-19T13:19:25.089Z,61.88
2018-07-19T13:20:34.508Z,67.50
2018-07-19T13:21:47.217Z,67.50
2018-07-19T13:22:42.519Z,67.50
2018-07-19T13:23:57.980Z,67.50
2018-07-19T13:24:53.584Z,67.50
2018-07-19T13:26:01.781Z,67.50
2018-07-19T13:27:06.293Z,73.13
2018-07-19T13:28:13.059Z,67.50
2018-07-19T13:29:25.686Z,67.50
2018-07-19T13:31:26.688Z,67.50
2018-07-19T13:32:32.533Z,73.13
2018-07-19T13:33:41.772Z,67.50
2018-07-19T13:34:49.247Z,67.50
2018-07-19T13:35:54.476Z,67.50
2018-07-19T13:36:57.146Z,61.88
2018-07-19T13:38:05.067Z,56.25
2018-07-19T13:39:10.065Z,56.25
2018-07-19T13:40:17.871Z,67.50
2018-07-19T13:41:18.882Z,67.50
2018-07-19T13:42:25.341Z,61.88
2018-07-19T13:43:31.524Z,61.88
2018-07-19T13:44:38.154Z,56.25
2018-07-19T13:45:36.726Z,61.88
2018-07-19T13:46:49.022Z,61.88
2018-07-19T13:47:52.722Z,67.50
2018-07-19T13:49:06.752Z,67.50
2018-07-19T13:50:06.245Z,67.50
2018-07-19T13:51:18.541Z,67.50
2018-07-19T13:52:09.745Z,61.88
2018-07-19T13:55:29.218Z,67.50
2018-07-19T13:56:41.206Z,67.50
2018-07-19T13:57:41.315Z,67.50
2018-07-19T13:58:44.809Z,67.50
2018-07-19T13:59:52.799Z,67.50
2018-07-19T14:01:06.529Z,67.50
2018-07-19T14:01:55.781Z,67.50
2018-07-19T14:04:31.429Z,67.50
2018-07-19T14:05:30.617Z,67.50
2018-07-19T14:06:27.039Z,61.88
2018-07-19T14:07:31.663Z,61.88
2018-07-19T14:08:36.987Z,61.88
2018-07-19T14:09:45.699Z,61.88
2018-07-19T14:11:00.559Z,56.25
2018-07-19T14:11:53.390Z,56.25
2018-07-19T14:14:10.525Z,56.25
2018-07-19T14:15:29.870Z,56.25
2018-07-19T14:17:20.535Z,50.63
2018-07-19T14:18:38.535Z,50.63
2018-07-19T14:19:50.683Z,56.25
2018-07-19T14:20:35.950Z,56.25
2018-07-19T14:21:41.478Z,56.25
2018-07-19T14:22:55.445Z,56.25
2018-07-19T14:24:02.698Z,56.25
2018-07-19T14:24:56.348Z,56.25
2018-07-19T14:26:03.011Z,56.25
2018-07-19T14:27:18.380Z,56.25
2018-07-19T14:28:14.538Z,50.63
2018-07-19T14:30:32.836Z,50.63
2018-07-19T14:31:33.456Z,50.63
2018-07-19T14:32:34.289Z,56.25
2018-07-19T14:34:54.879Z,56.25
2018-07-19T14:35:58.162Z,56.25
2018-07-19T14:37:01.967Z,56.25
2018-07-19T14:38:04.304Z,50.63
2018-07-19T14:40:20.923Z,56.25
2018-07-19T14:41:25.434Z,50.63
2018-07-19T14:42:28.002Z,50.63
2018-07-19T14:44:39.081Z,45.00
2018-07-19T14:45:40.830Z,45.00
2018-07-19T14:46:51.691Z,45.00
2018-07-19T14:48:59.177Z,50.63
2018-07-19T14:50:03.278Z,50.63
2018-07-19T14:51:13.115Z,50.63
2018-07-19T14:52:16.295Z,45.00
2018-07-19T14:53:23.067Z,50.63
2018-07-19T14:54:26.444Z,50.63
2018-07-19T14:55:35.566Z,45.00
2018-07-19T14:56:36.818Z,45.00
2018-07-19T14:57:43.569Z,39.38
2018-07-19T14:59:02.211Z,45.00
2018-07-19T14:59:57.613Z,45.00
2018-07-19T15:01:10.928Z,45.00
2018-07-19T15:02:03.664Z,45.00
2018-07-19T15:03:12.478Z,50.63
2018-07-19T15:04:23.654Z,50.63
2018-07-19T15:05:20.172Z,50.63
2018-07-19T15:06:23.352Z,50.63
2018-07-19T15:07:37.598Z,50.63
2018-07-19T15:08:39.340Z,45.00
2018-07-19T15:09:45.594Z,45.00
2018-07-19T15:11:56.360Z,39.38
2018-07-19T15:13:02.307Z,45.00
2018-07-19T15:14:09.583Z,45.00
2018-07-19T15:15:20.670Z,45.00
2018-07-19T15:16:13.182Z,39.38
2018-07-19T15:17:31.929Z,39.38
2018-07-19T15:18:41.052Z,39.38
2018-07-19T15:19:39.314Z,39.38
2018-07-19T15:20:35.750Z,39.38
2018-07-19T15:21:46.191Z,39.38
2018-07-19T15:22:50.494Z,39.38
2018-07-19T15:23:54.906Z,33.75
2018-07-19T15:25:04.339Z,33.75
2018-07-19T15:26:14.580Z,33.75
2018-07-19T15:27:19.604Z,33.75
2018-07-19T15:29:24.738Z,33.75
2018-07-19T15:30:29.662Z,33.75
2018-07-19T15:31:36.341Z,33.75
2018-07-19T15:32:39.814Z,33.75
2018-07-19T15:33:49.341Z,33.75
2018-07-19T15:38:21.522Z,39.38
2018-07-19T15:39:21.324Z,39.38
2018-07-19T15:40:31.264Z,33.75
2018-07-19T15:41:28.817Z,39.38
2018-07-19T15:43:35.587Z,39.38
2018-07-19T15:44:39.689Z,33.75
2018-07-19T15:46:59.772Z,33.75
2018-07-19T15:48:00.495Z,33.75
2018-07-19T15:51:13.317Z,33.75
2018-07-19T15:53:19.270Z,33.75
2018-07-19T15:54:33.202Z,39.38
2018-07-19T15:55:38.132Z,39.38
2018-07-19T15:56:42.432Z,73.13
2018-07-19T15:57:45.920Z,73.13
2018-07-19T15:58:49.205Z,39.38
2018-07-19T15:59:54.646Z,33.75
2018-07-19T16:01:06.423Z,39.38
2018-07-19T16:02:14.007Z,39.38
2018-07-19T16:05:25.394Z,33.75
2018-07-19T16:07:43.327Z,33.75
2018-07-19T16:08:49.785Z,33.75
2018-07-19T16:09:51.636Z,39.38
2018-07-19T16:10:58.708Z,39.38
2018-07-19T16:12:00.561Z,39.38
2018-07-19T16:13:06.302Z,61.88
2018-07-19T16:14:16.955Z,106.88
2018-07-19T16:16:25.369Z,50.63
2018-07-19T16:19:40.337Z,33.75
2018-07-19T16:20:43.675Z,33.75
2018-07-19T16:21:49.471Z,33.75
2018-07-19T16:22:59.815Z,28.13
2018-07-19T16:24:00.549Z,28.13
2018-07-19T16:25:01.261Z,28.13
2018-07-19T16:26:15.818Z,28.13
2018-07-19T16:27:17.253Z,28.13
2018-07-19T16:28:25.820Z,33.75
2018-07-19T16:29:28.321Z,33.75
2018-07-19T16:30:38.474Z,33.75
2018-07-19T16:31:44.926Z,28.13
2018-07-19T16:32:46.795Z,28.13
2018-07-19T16:35:00.923Z,28.13
2018-07-19T16:36:07.806Z,28.13
2018-07-19T16:38:11.589Z,33.75
2018-07-19T16:39:21.631Z,33.75
2018-07-19T16:40:21.233Z,56.25
2018-07-19T16:42:37.523Z,67.50
2018-07-19T16:44:52.490Z,45.00
2018-07-19T16:45:46.145Z,33.75
2018-07-19T16:48:09.104Z,39.38
2018-07-19T16:49:03.332Z,33.75
2018-07-19T16:50:15.767Z,28.13
2018-07-19T16:51:22.839Z,28.13
2018-07-19T16:52:31.243Z,28.13
2018-07-19T16:53:30.025Z,33.75
2018-07-19T16:54:33.718Z,56.25